QFA930 PASC-PAOM

Flight info

Callsign QFA930
Flight time 1h 25m
Altitude 34000
Route OTZ J123 OME
Aircraft B738/M-L/LB1

Departure

Time 2026-04-14 10:17
Airport Deadhorse Airport (PASC)

Arrival

Time 2026-04-14 11:42
Airport Nome Airport (PAOM)
Time Latitude Longitude Altitude Speed Heading
2026-04-14 09:02 70.19837 -148.45933 75 ft 0 kts 346°
2026-04-14 10:03 70.19838 -148.45933 75 ft 1 kts 346°
2026-04-14 10:03 70.19857 -148.45907 76 ft 6 kts 57°
2026-04-14 10:03 70.19849 -148.45840 75 ft 0 kts 158°
2026-04-14 10:13 70.19826 -148.45782 76 ft 13 kts 120°
2026-04-14 10:13 70.19823 -148.45425 76 ft 19 kts 126°
2026-04-14 10:14 70.19733 -148.45563 76 ft 22 kts 258°
2026-04-14 10:14 70.19699 -148.46048 76 ft 25 kts 256°
2026-04-14 10:14 70.19657 -148.46545 76 ft 25 kts 255°
2026-04-14 10:14 70.19614 -148.47042 76 ft 25 kts 256°
2026-04-14 10:15 70.19572 -148.47540 76 ft 25 kts 255°
2026-04-14 10:15 70.19528 -148.48036 76 ft 25 kts 256°
2026-04-14 10:15 70.19486 -148.48534 76 ft 25 kts 256°
2026-04-14 10:15 70.19431 -148.49016 76 ft 25 kts 223°
2026-04-14 10:16 70.19282 -148.49042 76 ft 18 kts 152°
2026-04-14 10:16 70.19285 -148.48632 76 ft 37 kts 73°
2026-04-14 10:16 70.19412 -148.47197 76 ft 105 kts 74°
2026-04-14 10:16 70.19636 -148.44614 223 ft 141 kts 78°
2026-04-14 10:17 70.19718 -148.41800 910 ft 144 kts 91°
2026-04-14 10:17 70.19322 -148.38981 1514 ft 156 kts 128°
2026-04-14 10:17 70.18362 -148.37358 2114 ft 170 kts 167°
2026-04-14 10:17 70.17164 -148.37869 2655 ft 184 kts 210°
2026-04-14 10:18 70.15703 -148.44555 3795 ft 213 kts 246°
2026-04-14 10:18 70.15032 -148.48622 4400 ft 229 kts 245°
2026-04-14 10:18 70.14298 -148.52991 5004 ft 246 kts 245°
2026-04-14 10:19 70.13528 -148.57619 5675 ft 260 kts 245°
2026-04-14 10:19 70.12714 -148.62566 6236 ft 278 kts 245°
2026-04-14 10:19 70.11856 -148.67794 6910 ft 288 kts 245°
2026-04-14 10:19 70.10974 -148.73148 7732 ft 294 kts 245°
2026-04-14 10:20 70.10073 -148.78587 8569 ft 298 kts 245°
2026-04-14 10:20 70.09170 -148.84027 9387 ft 303 kts 245°
2026-04-14 10:20 70.08232 -148.89657 10059 ft 312 kts 246°
2026-04-14 10:20 70.07253 -148.95520 10819 ft 319 kts 246°
2026-04-14 10:21 70.06282 -149.01312 11585 ft 323 kts 246°
2026-04-14 10:21 70.05284 -149.07248 12373 ft 327 kts 246°
2026-04-14 10:21 70.04274 -149.13243 13170 ft 330 kts 246°
2026-04-14 10:21 70.03238 -149.19372 13980 ft 333 kts 246°
2026-04-14 10:22 70.02220 -149.25381 14764 ft 336 kts 246°
2026-04-14 10:22 70.01173 -149.31538 15556 ft 340 kts 246°
2026-04-14 10:22 70.00114 -149.37748 16345 ft 343 kts 246°
2026-04-14 10:22 69.99043 -149.44006 17163 ft 345 kts 246°
2026-04-14 10:23 69.97961 -149.50305 17950 ft 349 kts 246°
2026-04-14 10:23 69.96868 -149.56655 18726 ft 352 kts 246°
2026-04-14 10:23 69.95756 -149.63096 19261 ft 363 kts 246°
2026-04-14 10:23 69.94594 -149.69822 19567 ft 380 kts 246°
2026-04-14 10:24 69.93375 -149.76848 19829 ft 397 kts 246°
2026-04-14 10:24 69.92107 -149.84113 20297 ft 406 kts 245°
2026-04-14 10:24 69.90816 -149.91459 21012 ft 408 kts 245°
2026-04-14 10:24 69.89522 -149.98807 21814 ft 408 kts 245°
2026-04-14 10:25 69.88231 -150.06121 22637 ft 406 kts 246°
2026-04-14 10:25 69.86946 -150.13386 23463 ft 403 kts 245°
2026-04-14 10:25 69.85666 -150.20595 24271 ft 400 kts 245°
2026-04-14 10:25 69.84372 -150.27857 25010 ft 400 kts 245°
2026-04-14 10:26 69.83093 -150.35010 25672 ft 400 kts 245°
2026-04-14 10:26 69.81809 -150.42165 26293 ft 401 kts 245°
2026-04-14 10:26 69.80522 -150.49309 26898 ft 401 kts 245°
2026-04-14 10:26 69.79227 -150.56474 27489 ft 402 kts 245°
2026-04-14 10:27 69.77927 -150.63641 28064 ft 403 kts 245°
2026-04-14 10:27 69.76622 -150.70808 28652 ft 403 kts 244°
2026-04-14 10:27 69.75294 -150.78091 28726 ft 417 kts 244°
2026-04-14 10:27 69.73927 -150.85557 29030 ft 422 kts 244°
2026-04-14 10:28 69.72546 -150.93046 29524 ft 423 kts 244°
2026-04-14 10:28 69.71160 -151.00536 30024 ft 424 kts 244°
2026-04-14 10:28 69.69772 -151.08023 30523 ft 424 kts 244°
2026-04-14 10:28 69.68383 -151.15498 31022 ft 423 kts 244°
2026-04-14 10:29 69.66993 -151.22955 31520 ft 422 kts 244°
2026-04-14 10:29 69.65602 -151.30383 32018 ft 421 kts 244°
2026-04-14 10:29 69.64212 -151.37777 32517 ft 420 kts 243°
2026-04-14 10:29 69.63291 -151.42658 32847 ft 419 kts 243°
2026-04-14 10:30 69.61891 -151.50063 33350 ft 416 kts 243°
2026-04-14 10:30 69.60511 -151.57336 33851 ft 414 kts 243°
2026-04-14 10:30 69.59136 -151.64562 34280 ft 414 kts 243°
2026-04-14 10:30 69.57739 -151.71883 34299 ft 424 kts 243°
2026-04-14 10:31 69.54842 -151.86980 34304 ft 441 kts 243°
2026-04-14 10:31 69.51827 -152.02555 34297 ft 454 kts 243°
2026-04-14 10:32 69.48722 -152.18486 34287 ft 462 kts 243°
2026-04-14 10:32 69.45588 -152.34435 34275 ft 460 kts 242°
2026-04-14 10:33 69.42462 -152.50231 34265 ft 457 kts 242°
2026-04-14 10:33 69.39333 -152.65932 34256 ft 456 kts 242°
2026-04-14 10:34 69.34615 -152.89375 34243 ft 456 kts 242°
2026-04-14 10:35 69.31457 -153.04925 34234 ft 456 kts 242°
2026-04-14 10:35 69.28281 -153.20449 34226 ft 456 kts 242°
2026-04-14 10:36 69.25090 -153.35936 34219 ft 456 kts 241°
2026-04-14 10:36 69.21884 -153.51379 34212 ft 456 kts 241°
2026-04-14 10:37 69.18664 -153.66779 34206 ft 456 kts 241°
2026-04-14 10:37 69.15431 -153.82133 34203 ft 457 kts 241°
2026-04-14 10:38 69.12183 -153.97444 34199 ft 457 kts 241°
2026-04-14 10:38 69.08920 -154.12715 34195 ft 457 kts 240°
2026-04-14 10:39 69.05648 -154.27923 34192 ft 457 kts 240°
2026-04-14 10:39 69.02360 -154.43093 34188 ft 456 kts 240°
2026-04-14 10:40 68.99061 -154.58212 34186 ft 456 kts 240°
2026-04-14 10:40 68.95749 -154.73279 34189 ft 456 kts 240°
2026-04-14 10:41 68.92427 -154.88292 34225 ft 456 kts 240°
2026-04-14 10:41 68.89085 -155.03287 34244 ft 457 kts 240°
2026-04-14 10:42 68.85731 -155.18229 34243 ft 456 kts 239°
2026-04-14 10:42 68.82368 -155.33111 34240 ft 456 kts 239°
2026-04-14 10:43 68.78995 -155.47939 34235 ft 455 kts 239°
2026-04-14 10:43 68.75614 -155.62696 34229 ft 455 kts 239°
2026-04-14 10:44 68.72218 -155.77418 34224 ft 455 kts 239°
2026-04-14 10:44 68.68812 -155.92080 34224 ft 454 kts 239°
2026-04-14 10:45 68.65400 -156.06674 34215 ft 454 kts 239°
2026-04-14 10:45 68.61972 -156.21234 34208 ft 454 kts 239°
2026-04-14 10:46 68.58532 -156.35754 34203 ft 454 kts 238°
2026-04-14 10:46 68.55076 -156.50237 34210 ft 455 kts 238°
2026-04-14 10:47 68.51604 -156.64697 34207 ft 456 kts 238°
2026-04-14 10:47 68.48109 -156.79150 34202 ft 457 kts 238°
2026-04-14 10:48 68.44601 -156.93563 34198 ft 457 kts 238°
2026-04-14 10:48 68.41080 -157.07932 34193 ft 457 kts 238°
2026-04-14 10:49 68.37547 -157.22257 34179 ft 457 kts 238°
2026-04-14 10:49 68.34003 -157.36533 34161 ft 456 kts 237°
2026-04-14 10:50 68.30452 -157.50747 34151 ft 456 kts 237°
2026-04-14 10:50 68.26888 -157.64913 34143 ft 456 kts 237°
2026-04-14 10:51 68.23315 -157.79029 34140 ft 456 kts 237°
2026-04-14 10:51 68.19731 -157.93095 34146 ft 455 kts 237°
2026-04-14 10:52 68.16139 -158.07103 34151 ft 456 kts 237°
2026-04-14 10:52 68.12529 -158.21089 34150 ft 456 kts 237°
2026-04-14 10:53 68.08883 -158.35124 34148 ft 456 kts 237°
2026-04-14 10:53 68.05248 -158.49030 34145 ft 456 kts 236°
2026-04-14 10:54 68.01599 -158.62903 34143 ft 456 kts 236°
2026-04-14 10:54 67.97936 -158.76734 34142 ft 456 kts 236°
2026-04-14 10:55 67.94272 -158.90485 34140 ft 455 kts 236°
2026-04-14 10:55 67.90597 -159.04192 34139 ft 455 kts 236°
2026-04-14 10:56 67.86909 -159.17865 34138 ft 456 kts 236°
2026-04-14 10:56 67.83209 -159.31490 34137 ft 456 kts 236°
2026-04-14 10:57 67.79494 -159.45092 34133 ft 456 kts 236°
2026-04-14 10:57 67.75763 -159.58664 34129 ft 456 kts 236°
2026-04-14 10:58 67.72019 -159.72199 34129 ft 457 kts 235°
2026-04-14 10:58 67.68264 -159.85692 34129 ft 457 kts 235°
2026-04-14 10:59 67.64497 -159.99142 34129 ft 457 kts 235°
2026-04-14 10:59 67.60719 -160.12551 34133 ft 457 kts 235°
2026-04-14 11:00 67.56930 -160.25916 34133 ft 457 kts 235°
2026-04-14 11:00 67.53133 -160.39229 34132 ft 456 kts 235°
2026-04-14 11:01 67.49333 -160.52474 34131 ft 456 kts 234°
2026-04-14 11:01 67.45521 -160.65679 34129 ft 455 kts 234°
2026-04-14 11:02 67.41699 -160.78836 34128 ft 455 kts 234°
2026-04-14 11:02 67.37871 -160.91938 34128 ft 455 kts 234°
2026-04-14 11:03 67.34007 -161.05086 34128 ft 455 kts 234°
2026-04-14 11:03 67.30158 -161.18100 34125 ft 455 kts 234°
2026-04-14 11:04 67.26300 -161.31072 34120 ft 455 kts 234°
2026-04-14 11:04 67.22432 -161.43997 34118 ft 455 kts 234°
2026-04-14 11:05 67.18554 -161.56881 34117 ft 454 kts 234°
2026-04-14 11:05 67.15327 -161.67545 34116 ft 454 kts 234°
2026-04-14 11:06 67.11431 -161.80351 34114 ft 455 kts 234°
2026-04-14 11:06 67.07526 -161.93109 34112 ft 454 kts 234°
2026-04-14 11:07 67.03588 -162.05902 34111 ft 454 kts 234°
2026-04-14 11:07 66.99671 -162.18554 34109 ft 453 kts 234°
2026-04-14 11:08 66.95749 -162.31148 34108 ft 453 kts 233°
2026-04-14 11:08 66.91806 -162.43719 34106 ft 453 kts 233°
2026-04-14 11:09 66.87381 -162.55091 34102 ft 458 kts 216°
2026-04-14 11:09 66.81716 -162.62700 34104 ft 462 kts 208°
2026-04-14 11:10 66.73039 -162.73279 34106 ft 461 kts 208°
2026-04-14 11:10 66.67285 -162.80430 34108 ft 461 kts 208°
2026-04-14 11:11 66.61523 -162.87508 34110 ft 461 kts 208°
2026-04-14 11:11 66.55754 -162.94542 34114 ft 461 kts 208°
2026-04-14 11:12 66.49987 -163.01557 34118 ft 460 kts 208°
2026-04-14 11:12 66.44215 -163.08517 34125 ft 461 kts 208°
2026-04-14 11:13 66.38441 -163.15448 34130 ft 460 kts 208°
2026-04-14 11:13 66.32674 -163.22342 34132 ft 460 kts 208°
2026-04-14 11:14 66.26897 -163.29205 34132 ft 460 kts 208°
2026-04-14 11:14 66.21121 -163.36035 34131 ft 460 kts 208°
2026-04-14 11:15 66.15347 -163.42831 33669 ft 459 kts 208°
2026-04-14 11:15 66.12477 -163.46192 33051 ft 454 kts 208°
2026-04-14 11:15 66.09633 -163.49512 32466 ft 450 kts 208°
2026-04-14 11:16 66.06819 -163.52792 31892 ft 445 kts 208°
2026-04-14 11:16 66.04034 -163.56033 31329 ft 440 kts 208°
2026-04-14 11:16 66.01314 -163.59191 30779 ft 436 kts 208°
2026-04-14 11:16 65.98590 -163.62346 30226 ft 432 kts 209°
2026-04-14 11:17 65.95881 -163.65475 29677 ft 427 kts 209°
2026-04-14 11:17 65.93205 -163.68558 29134 ft 423 kts 209°
2026-04-14 11:17 65.90560 -163.71599 28598 ft 419 kts 208°
2026-04-14 11:17 65.87935 -163.74610 28066 ft 415 kts 208°
2026-04-14 11:18 65.85335 -163.77587 27538 ft 411 kts 208°
2026-04-14 11:18 65.82758 -163.80531 27016 ft 407 kts 207°
2026-04-14 11:18 65.80204 -163.83441 26499 ft 403 kts 207°
2026-04-14 11:18 65.77673 -163.86319 25986 ft 400 kts 207°
2026-04-14 11:19 65.75165 -163.89165 25479 ft 396 kts 207°
2026-04-14 11:19 65.72712 -163.91941 24982 ft 392 kts 206°
2026-04-14 11:19 65.70248 -163.94725 24484 ft 389 kts 206°
2026-04-14 11:19 65.67807 -163.97477 23990 ft 385 kts 206°
2026-04-14 11:20 65.65389 -164.00198 23509 ft 381 kts 206°
2026-04-14 11:20 65.62994 -164.02886 23032 ft 378 kts 206°
2026-04-14 11:20 65.60621 -164.05544 22555 ft 374 kts 206°
2026-04-14 11:20 65.58270 -164.08173 22081 ft 371 kts 206°
2026-04-14 11:21 65.55944 -164.10769 21611 ft 367 kts 206°
2026-04-14 11:21 65.53633 -164.13343 21145 ft 364 kts 206°
2026-04-14 11:21 65.51342 -164.15889 20682 ft 361 kts 206°
2026-04-14 11:21 65.49072 -164.18408 20224 ft 358 kts 206°
2026-04-14 11:22 65.46822 -164.20898 19769 ft 354 kts 206°
2026-04-14 11:22 65.44594 -164.23360 19320 ft 351 kts 206°
2026-04-14 11:22 65.42397 -164.25783 18968 ft 344 kts 206°
2026-04-14 11:22 65.40266 -164.28129 18579 ft 339 kts 206°
2026-04-14 11:23 65.38133 -164.30473 18161 ft 335 kts 206°
2026-04-14 11:23 65.36015 -164.32798 17733 ft 335 kts 206°
2026-04-14 11:23 65.33884 -164.35134 17187 ft 338 kts 206°
2026-04-14 11:23 65.31740 -164.37479 16718 ft 339 kts 206°
2026-04-14 11:24 65.29593 -164.39821 16272 ft 339 kts 206°
2026-04-14 11:24 65.27453 -164.42151 15834 ft 336 kts 205°
2026-04-14 11:24 65.25314 -164.44475 15400 ft 331 kts 206°
2026-04-14 11:24 65.23263 -164.46701 14984 ft 326 kts 205°
2026-04-14 11:25 65.21189 -164.48948 14564 ft 320 kts 205°
2026-04-14 11:25 65.19155 -164.51150 14154 ft 324 kts 205°
2026-04-14 11:25 65.17087 -164.53385 13736 ft 328 kts 205°
2026-04-14 11:25 65.15004 -164.55631 13314 ft 328 kts 205°
2026-04-14 11:26 65.12934 -164.57858 12894 ft 324 kts 205°
2026-04-14 11:26 65.10896 -164.60043 12481 ft 318 kts 205°
2026-04-14 11:26 65.08898 -164.62176 12077 ft 312 kts 205°
2026-04-14 11:26 65.06910 -164.64301 11678 ft 317 kts 205°
2026-04-14 11:27 65.04888 -164.66464 11269 ft 320 kts 205°
2026-04-14 11:27 65.02851 -164.68641 10857 ft 322 kts 205°
2026-04-14 11:27 65.00830 -164.70795 10476 ft 314 kts 205°
2026-04-14 11:27 64.98892 -164.72852 10360 ft 297 kts 205°
2026-04-14 11:28 64.97056 -164.74800 10240 ft 282 kts 205°
2026-04-14 11:28 64.95297 -164.76665 10123 ft 275 kts 205°
2026-04-14 11:28 64.93563 -164.78504 10005 ft 272 kts 205°
2026-04-14 11:28 64.91822 -164.80347 9670 ft 277 kts 205°
2026-04-14 11:29 64.90075 -164.82192 9303 ft 274 kts 205°
2026-04-14 11:29 64.88347 -164.84014 8944 ft 271 kts 205°
2026-04-14 11:29 64.86640 -164.85810 8595 ft 268 kts 205°
2026-04-14 11:29 64.84944 -164.87593 8246 ft 265 kts 205°
2026-04-14 11:30 64.83267 -164.89354 7903 ft 263 kts 205°
2026-04-14 11:30 64.81604 -164.91102 7562 ft 261 kts 205°
2026-04-14 11:30 64.79946 -164.92840 7223 ft 260 kts 205°
2026-04-14 11:30 64.78299 -164.94563 6886 ft 259 kts 205°
2026-04-14 11:31 64.76659 -164.96276 6549 ft 257 kts 205°
2026-04-14 11:31 64.75029 -164.97974 6217 ft 256 kts 205°
2026-04-14 11:31 64.73407 -164.99663 5886 ft 254 kts 205°
2026-04-14 11:31 64.71796 -165.01339 5556 ft 253 kts 205°
2026-04-14 11:32 64.70193 -165.03003 5228 ft 252 kts 205°
2026-04-14 11:32 64.68595 -165.04659 4905 ft 250 kts 205°
2026-04-14 11:32 64.67046 -165.06263 4809 ft 237 kts 205°
2026-04-14 11:32 64.65573 -165.07781 4710 ft 226 kts 204°
2026-04-14 11:33 64.64076 -165.08160 4577 ft 215 kts 165°
2026-04-14 11:33 64.62902 -165.06251 4394 ft 205 kts 127°
2026-04-14 11:33 64.62096 -165.03574 4179 ft 200 kts 122°
2026-04-14 11:34 64.60436 -164.98550 3726 ft 193 kts 131°
2026-04-14 11:34 64.59470 -164.96352 3499 ft 194 kts 137°
2026-04-14 11:34 64.58439 -164.94395 3281 ft 190 kts 142°
2026-04-14 11:34 64.57303 -164.92593 3056 ft 204 kts 147°
2026-04-14 11:35 64.56071 -164.90982 2812 ft 202 kts 152°
2026-04-14 11:35 64.54778 -164.89615 2629 ft 203 kts 158°
2026-04-14 11:35 64.53449 -164.88515 2620 ft 204 kts 163°
2026-04-14 11:35 64.52076 -164.87677 2627 ft 204 kts 168°
2026-04-14 11:36 64.50671 -164.87120 2616 ft 205 kts 173°
2026-04-14 11:36 64.49248 -164.86845 2616 ft 205 kts 178°
2026-04-14 11:36 64.47822 -164.86853 2620 ft 205 kts 183°
2026-04-14 11:36 64.46419 -164.87138 2613 ft 205 kts 188°
2026-04-14 11:37 64.45058 -164.88111 2595 ft 202 kts 217°
2026-04-14 11:37 64.44254 -164.90619 2595 ft 198 kts 254°
2026-04-14 11:37 64.43890 -164.93746 2597 ft 198 kts 259°
2026-04-14 11:37 64.43740 -164.96846 2602 ft 196 kts 277°
2026-04-14 11:38 64.44095 -164.99903 2603 ft 195 kts 292°
2026-04-14 11:38 64.44555 -165.02810 2587 ft 195 kts 292°
2026-04-14 11:38 64.45013 -165.05711 2595 ft 188 kts 292°
2026-04-14 11:38 64.45463 -165.08553 2591 ft 184 kts 292°
2026-04-14 11:39 64.45892 -165.11272 2599 ft 177 kts 292°
2026-04-14 11:39 64.46311 -165.13929 2600 ft 174 kts 292°
2026-04-14 11:39 64.46714 -165.16498 2448 ft 166 kts 292°
2026-04-14 11:39 64.47106 -165.18998 2234 ft 163 kts 292°
2026-04-14 11:40 64.47491 -165.21448 2014 ft 160 kts 292°
2026-04-14 11:40 64.47870 -165.23871 1799 ft 160 kts 292°
2026-04-14 11:40 64.48251 -165.26306 1586 ft 161 kts 292°
2026-04-14 11:40 64.48632 -165.28743 1384 ft 160 kts 291°
2026-04-14 11:41 64.49009 -165.31158 1160 ft 157 kts 291°
2026-04-14 11:41 64.49367 -165.33461 952 ft 147 kts 291°
2026-04-14 11:41 64.49710 -165.35668 760 ft 144 kts 291°
2026-04-14 11:41 64.50050 -165.37815 572 ft 140 kts 290°
2026-04-14 11:42 64.50373 -165.39907 398 ft 136 kts 289°
2026-04-14 11:42 64.50682 -165.41961 190 ft 135 kts 289°
2026-04-14 11:42 64.50988 -165.43954 47 ft 119 kts 289°
2026-04-14 11:42 64.51179 -165.45133 47 ft 37 kts 296°
2026-04-14 11:43 64.51173 -165.45366 47 ft 9 kts 126°
2026-04-14 11:43 64.51135 -165.45181 47 ft 22 kts 114°
2026-04-14 11:43 64.51067 -165.44753 47 ft 32 kts 124°
2026-04-14 11:43 64.50933 -165.44465 47 ft 25 kts 134°
2026-04-14 11:44 64.50862 -165.44135 47 ft 19 kts 108°
2026-04-14 11:44 64.50804 -165.44027 47 ft 8 kts 189°
2026-04-14 11:44 64.50786 -165.44034 47 ft 0 kts 188°